Time;durP1;ratioP1;P1;durP2;ratioP2;P2;SDS_P1;SDS_P2;PMS_P1;PMS_P2;Temp;Humidity;BMP_temperature;BMP_pressure;BME280_temperature;BME280_humidity;BME280_pressure;Samples;Min_cycle;Max_cycle;Signal;HPM_P1;HPM_P2
2021/04/13 09:19:21;;;;;;;0.30;0.30;;;;;;;22.28;29.45;95113.72;5081965;23;20106;-91
2021/04/13 09:21:47;;;;;;;0.43;0.20;;;;;;;22.17;29.21;95102.22;4948065;28;20039;-90
2021/04/13 09:24:21;;;;;;;0.20;0.20;;;;;;;22.23;29.15;95108.34;4935684;29;20035;-90
2021/04/13 09:27:20;;;;;;;0.30;0.30;;;;;;;22.31;29.13;95115.84;4930964;29;20043;-91
2021/04/13 09:30:18;;;;;;;0.40;0.20;;;;;;;22.29;29.07;95107.34;4866734;29;20126;-90
2021/04/13 09:32:48;;;;;;;0.45;0.30;;;;;;;22.42;28.75;95138.72;4824113;29;20079;-90
2021/04/13 09:36:03;;;;;;;0.50;0.30;;;;;;;22.44;28.87;95130.53;4794089;29;20109;-91
2021/04/13 09:38:43;;;;;;;0.28;0.28;;;;;;;22.40;28.76;95132.09;4831038;29;20132;-91
2021/04/13 09:41:40;;;;;;;0.20;0.20;;;;;;;22.33;28.87;95115.59;4840624;29;20086;-90
2021/04/13 09:44:30;;;;;;;0.20;0.20;;;;;;;22.46;28.81;95139.03;4793086;29;20039;-91
2021/04/13 09:47:21;;;;;;;0.30;0.20;;;;;;;22.44;28.97;95133.19;4800484;29;20091;-91
2021/04/13 09:50:02;;;;;;;0.20;0.20;;;;;;;22.44;29.03;95135.81;4798421;29;20045;-89
2021/04/13 09:53:11;;;;;;;1.90;0.30;;;;;;;22.44;28.80;95135.81;4789906;29;20054;-90
2021/04/13 09:56:20;;;;;;;0.20;0.20;;;;;;;22.44;28.80;95135.81;4803356;29;20034;-90
2021/04/13 11:32:49;;;;;;;0.20;0.20;;;;;;;22.49;28.79;95096.13;5037409;23;20130;-86
2021/04/13 11:35:41;;;;;;;0.20;0.20;;;;;;;22.47;28.83;95092.13;4936876;29;20067;-85
2021/04/13 11:38:34;;;;;;;0.20;0.20;;;;;;;22.48;28.99;95099.81;4953411;29;20027;-85
2021/04/13 11:55:51;;;;;;;0.30;0.30;;;;;;;21.90;29.57;95083.72;6271885;22;798872;-84
2021/04/13 11:58:23;;;;;;;0.30;0.30;;;;;;;21.98;29.35;95069.22;6202709;23;20020;-84
2021/04/13 12:00:50;;;;;;;0.40;0.40;;;;;;;22.19;29.12;95081.56;6204442;23;20012;-85
2021/04/13 12:03:18;;;;;;;0.30;0.30;;;;;;;22.33;29.15;95089.94;6228089;23;20008;-85
2021/04/13 12:06:03;;;;;;;0.35;0.30;;;;;;;22.31;29.04;95078.75;6252461;23;20003;-86
2021/04/13 12:08:28;;;;;;;0.30;0.30;;;;;;;22.40;28.86;95092.34;6190040;23;20100;-85
2021/04/13 12:10:54;;;;;;;0.30;0.30;;;;;;;22.39;28.59;95091.56;6196480;23;20032;-85
2021/04/13 12:13:40;;;;;;;0.50;0.30;;;;;;;22.44;28.75;95083.63;6172671;23;20058;-85
2021/04/13 12:16:06;;;;;;;0.30;0.30;;;;;;;22.45;29.01;95089.72;6174150;23;20008;-86
2021/04/13 12:18:35;;;;;;;0.40;0.30;;;;;;;22.50;28.63;95103.00;6147612;23;20008;-84
2021/04/13 12:21:24;;;;;;;0.73;0.30;;;;;;;22.47;29.00;95097.44;6196852;23;20008;-85
2021/04/13 12:29:38;;;;;;;0.22;0.22;;;;;;;22.51;28.96;95099.31;6202000;22;20024;-84
2021/04/13 12:32:12;;;;;;;0.30;0.30;;;;;;;22.51;28.85;95099.31;6106708;23;20066;-83
2021/04/13 12:34:52;;;;;;;0.55;0.30;;;;;;;22.49;28.93;95096.13;6106364;23;20049;-85
2021/04/13 12:40:02;;;;;;;0.90;0.32;;;;;;;22.35;28.80;95079.06;6131557;23;20077;-60
2021/04/13 12:42:33;;;;;;;0.30;0.30;;;;;;;22.47;29.08;95092.94;6107312;23;20037;-61
2021/04/13 12:45:20;;;;;;;0.30;0.30;;;;;;;22.51;28.97;95095.88;6131686;23;20016;-60
2021/04/13 12:47:52;;;;;;;0.20;0.20;;;;;;;22.47;29.03;95090.28;6131747;23;20006;-60
2021/04/13 12:50:26;;;;;;;0.30;0.30;;;;;;;22.48;28.80;95085.75;6107206;23;20001;-60
2021/04/13 12:52:52;;;;;;;0.20;0.20;;;;;;;22.45;28.78;95089.72;6132445;23;19998;-60
2021/04/13 12:55:18;;;;;;;0.28;0.20;;;;;;;22.32;29.24;95067.13;6124165;23;20021;-84
2021/04/13 12:58:01;;;;;;;0.20;0.20;;;;;;;22.47;28.95;95084.97;6106479;23;20008;-85
2021/04/13 13:00:35;;;;;;;0.30;0.30;;;;;;;22.44;29.05;95073.00;6105919;23;20041;-85
2021/04/13 13:03:20;;;;;;;0.20;0.20;;;;;;;22.44;28.91;95072.22;6106540;23;20022;-86
2021/04/13 13:16:16;;;;;;;0.20;0.20;;;;;;;22.37;29.04;95053.09;6139549;23;20048;-82
2021/04/13 13:18:47;;;;;;;0.28;0.28;;;;;;;22.35;28.99;95041.94;6111298;23;20033;-82
2021/04/13 13:21:49;;;;;;;0.22;0.20;;;;;;;22.49;29.03;95056.38;6134558;23;20096;-83
2021/04/13 13:24:22;;;;;;;0.20;0.20;;;;;;;22.47;29.09;95055.03;6069529;23;20014;-82
2021/04/13 13:26:49;;;;;;;0.25;0.25;;;;;;;22.48;28.75;95064.56;6046899;23;20109;-83
2021/04/13 13:29:15;;;;;;;0.20;0.20;;;;;;;22.48;28.93;95060.06;6093502;23;20006;-82
2021/04/13 13:31:46;;;;;;;0.30;0.30;;;;;;;22.43;28.98;95044.94;6093156;23;20002;-81
2021/04/13 13:36:46;;;;;;;0.20;0.20;;;;;;;22.46;28.90;95062.16;6127083;23;20037;-64
2021/04/13 13:39:27;;;;;;;0.20;0.20;;;;;;;22.48;29.28;95067.22;6097089;23;20023;-64
2021/04/13 13:41:58;;;;;;;0.75;0.38;;;;;;;22.49;28.88;95069.63;6077533;23;20006;-64
2021/04/13 13:44:51;;;;;;;0.20;0.20;;;;;;;22.50;29.01;95071.19;6051611;23;20001;-64
2021/04/13 13:47:37;;;;;;;0.30;0.30;;;;;;;22.50;29.06;95065.91;6098570;23;20013;-64
2021/04/13 13:50:21;;;;;;;0.20;0.20;;;;;;;22.49;28.99;95061.66;6099899;23;20001;-64
2021/04/13 13:52:50;;;;;;;0.30;0.30;;;;;;;22.44;28.53;95061.63;6054621;23;19998;-64
2021/04/13 13:55:16;;;;;;;0.20;0.20;;;;;;;22.48;29.07;95068.00;6074848;23;20049;-64
2021/04/13 13:57:42;;;;;;;0.20;0.20;;;;;;;22.47;28.96;95062.97;6124580;23;20014;-64
2021/04/13 14:00:34;;;;;;;0.20;0.20;;;;;;;22.50;29.05;95057.94;6075164;23;20029;-64
2021/04/13 14:03:10;;;;;;;0.20;0.20;;;;;;;22.51;28.62;95053.47;6078192;23;20024;-64
2021/04/13 14:05:38;;;;;;;0.20;0.20;;;;;;;22.45;28.73;95048.13;6051319;23;20002;-64
2021/04/13 14:08:22;;;;;;;0.20;0.20;;;;;;;22.48;28.74;95046.81;6074662;23;20001;-63
2021/04/13 14:10:48;;;;;;;0.30;0.30;;;;;;;22.43;29.08;95052.09;6075160;23;20013;-64
2021/04/13 14:13:18;;;;;;;0.20;0.20;;;;;;;22.46;28.83;95054.22;6074265;23;20005;-64
2021/04/13 14:15:52;;;;;;;0.20;0.20;;;;;;;22.49;28.96;95044.97;6075865;23;20085;-64
2021/04/13 14:18:23;;;;;;;0.20;0.20;;;;;;;22.49;28.71;95056.38;6075680;23;20009;-64
2021/04/13 14:21:18;;;;;;;0.20;0.20;;;;;;;22.49;29.07;95045.75;6099325;23;20179;-64
2021/04/13 14:23:50;;;;;;;0.20;0.20;;;;;;;22.47;29.13;95053.19;6054074;23;20013;-64
2021/04/13 14:26:32;;;;;;;0.20;0.20;;;;;;;22.50;28.70;95049.19;6075595;23;20013;-64
2021/04/13 14:29:19;;;;;;;0.17;0.17;;;;;;;22.50;28.73;95043.91;6098424;23;20006;-64
2021/04/13 14:31:53;;;;;;;0.93;0.22;;;;;;;22.48;28.82;95048.66;6099068;23;20001;-64
2021/04/13 14:34:19;;;;;;;0.10;0.10;;;;;;;22.46;29.05;95043.63;6074996;23;20010;-64
2021/04/13 14:36:46;;;;;;;0.20;0.20;;;;;;;22.45;28.75;95042.03;6074426;23;20010;-64
2021/04/13 14:39:17;;;;;;;0.30;0.30;;;;;;;22.47;29.07;95044.44;6098882;23;20018;-64
2021/04/13 14:41:42;;;;;;;0.20;0.20;;;;;;;22.47;28.75;95039.91;6099478;23;20001;-64
2021/04/13 14:44:09;;;;;;;0.20;0.20;;;;;;;22.47;28.92;95037.28;6122942;23;20005;-64
2021/04/13 14:46:38;;;;;;;0.10;0.10;;;;;;;22.48;28.86;95035.41;6098438;23;20009;-64
2021/04/13 14:49:04;;;;;;;0.73;0.20;;;;;;;22.44;28.92;95033.25;6122919;23;20582;-64
2021/04/13 14:51:30;;;;;;;0.20;0.20;;;;;;;22.46;28.87;95033.00;6098616;23;20021;-64
2021/04/13 14:53:55;;;;;;;0.20;0.20;;;;;;;22.48;28.77;95035.41;6099267;23;20054;-64
2021/04/13 14:56:22;;;;;;;0.32;0.30;;;;;;;22.48;28.81;95033.56;6123220;23;20070;-64
2021/04/13 14:58:48;;;;;;;0.20;0.20;;;;;;;22.44;29.17;95027.97;6098366;23;20013;-64
2021/04/13 15:01:14;;;;;;;0.20;0.20;;;;;;;22.47;28.88;95029.31;6123011;23;20005;-64
2021/04/13 15:03:39;;;;;;;0.20;0.20;;;;;;;22.45;29.09;95021.63;6098970;23;20010;-63
2021/04/13 15:06:05;;;;;;;0.32;0.20;;;;;;;22.45;29.01;95018.97;6122485;23;20033;-64
2021/04/13 15:08:33;;;;;;;0.35;0.20;;;;;;;22.48;29.17;95019.50;6098793;23;20076;-64
2021/04/13 15:10:58;;;;;;;0.20;0.20;;;;;;;22.46;29.12;95017.09;6074685;23;20113;-64
2021/04/13 15:13:25;;;;;;;0.25;0.25;;;;;;;22.47;28.82;95012.63;6122582;23;20001;-64
2021/04/13 15:15:54;;;;;;;0.28;0.20;;;;;;;22.48;28.82;95019.50;6074751;23;20116;-64
2021/04/13 15:18:21;;;;;;;0.20;0.20;;;;;;;22.49;28.73;95008.66;6075112;23;20013;-64
2021/04/13 15:20:49;;;;;;;0.20;0.20;;;;;;;22.46;29.12;95009.16;6097755;23;20006;-64
2021/04/13 15:23:16;;;;;;;0.25;0.25;;;;;;;22.47;28.84;95013.41;6038917;23;20116;-64
2021/04/13 15:25:43;;;;;;;0.20;0.20;;;;;;;22.48;28.74;95009.69;6098499;23;20009;-64
2021/04/13 15:28:09;;;;;;;0.30;0.30;;;;;;;22.48;29.02;95009.69;6100295;23;20064;-64
2021/04/13 15:30:39;;;;;;;0.30;0.30;;;;;;;22.49;28.90;95002.56;6098716;23;20025;-64
2021/04/13 15:33:05;;;;;;;0.20;0.20;;;;;;;22.48;29.21;95009.69;6099292;23;20089;-64
2021/04/13 15:36:06;;;;;;;0.10;0.10;;;;;;;22.51;28.78;95006.53;6108120;23;20029;-64
2021/04/13 15:38:31;;;;;;;0.20;0.20;;;;;;;22.44;29.07;94998.03;6102819;23;20035;-65
2021/04/13 15:41:00;;;;;;;0.45;0.43;;;;;;;22.49;29.22;94994.63;6124099;23;20010;-66
2021/04/13 15:43:33;;;;;;;0.63;0.40;;;;;;;22.51;29.20;95003.09;6099467;23;20009;-64
2021/04/13 15:46:21;;;;;;;1.48;0.80;;;;;;;22.53;28.49;95001.78;6125371;23;20032;-66
2021/04/13 15:49:06;;;;;;;1.10;0.55;;;;;;;22.52;29.27;95005.47;6123673;23;20005;-65
2021/04/13 15:51:31;;;;;;;1.55;0.70;;;;;;;22.50;29.26;94998.84;6123452;23;20128;-68
2021/04/13 15:54:01;;;;;;;0.77;0.70;;;;;;;22.52;29.56;94994.09;6122810;23;20006;-68
2021/04/13 15:56:27;;;;;;;3.55;0.80;;;;;;;22.57;29.79;95007.38;6124098;23;20009;-65
2021/04/13 15:58:52;;;;;;;0.60;0.60;;;;;;;22.56;29.29;95006.59;6124342;23;20053;-65
2021/04/13 16:01:21;;;;;;;0.55;0.50;;;;;;;22.60;29.51;95012.97;6098489;23;20002;-65
2021/04/13 16:03:47;;;;;;;1.45;0.52;;;;;;;22.59;29.31;95016.66;6099412;23;20010;-65
2021/04/13 16:06:12;;;;;;;0.70;0.52;;;;;;;22.62;29.39;95018.00;6124422;23;20013;-65
2021/04/13 16:08:38;;;;;;;0.70;0.50;;;;;;;22.60;29.42;95015.59;6098653;23;20018;-65
2021/04/13 16:11:04;;;;;;;1.13;0.50;;;;;;;22.61;29.09;95021.69;6123722;23;20010;-65
2021/04/13 16:13:30;;;;;;;1.20;0.45;;;;;;;22.61;29.30;95019.84;6123404;23;20006;-65
2021/04/13 16:15:58;;;;;;;0.80;0.50;;;;;;;22.62;29.26;95028.59;6099532;23;20024;-65
2021/04/13 16:18:24;;;;;;;0.50;0.50;;;;;;;22.61;28.85;95033.09;6099550;23;20029;-64
2021/04/13 16:20:52;;;;;;;0.50;0.50;;;;;;;22.60;29.27;95033.38;6123075;23;20010;-65
2021/04/13 16:23:18;;;;;;;0.40;0.40;;;;;;;22.58;29.08;95030.97;6098660;23;20033;-65
2021/04/13 16:25:44;;;;;;;0.68;0.50;;;;;;;22.60;29.31;95046.63;6147362;23;20097;-65
2021/04/13 16:28:09;;;;;;;0.80;0.50;;;;;;;22.61;28.88;95046.34;6124268;23;20030;-65
2021/04/13 16:30:37;;;;;;;0.50;0.50;;;;;;;22.59;29.09;95037.06;6099820;23;20091;-65
2021/04/13 16:33:03;;;;;;;0.40;0.40;;;;;;;22.44;29.08;95011.28;6101473;23;20050;-65
2021/04/13 16:35:28;;;;;;;0.45;0.45;;;;;;;22.59;29.07;95031.75;6115710;23;20017;-65
2021/04/13 16:37:54;;;;;;;0.50;0.50;;;;;;;22.60;29.01;95028.06;6101400;23;20002;-65
2021/04/13 16:40:34;;;;;;;0.40;0.40;;;;;;;22.60;29.18;95023.56;6100832;23;20006;-65
2021/04/13 16:43:05;;;;;;;0.50;0.50;;;;;;;22.58;29.08;95025.66;6101249;23;20010;-65
2021/04/13 16:45:39;;;;;;;0.52;0.43;;;;;;;22.58;28.90;95025.66;6101920;23;20005;-65
2021/04/13 16:48:07;;;;;;;0.60;0.60;;;;;;;22.57;29.08;95025.94;6101386;23;20016;-65
2021/04/13 16:50:33;;;;;;;0.47;0.47;;;;;;;22.55;28.93;95034.13;6075801;23;20013;-64
2021/04/13 16:53:01;;;;;;;0.95;0.60;;;;;;;22.55;29.17;95028.81;6124571;23;20029;-65
2021/04/13 16:55:26;;;;;;;0.98;0.40;;;;;;;22.55;28.98;95036.78;6101878;23;19998;-65
2021/04/13 16:57:53;;;;;;;0.40;0.40;;;;;;;22.54;29.03;95037.03;6100931;23;20005;-65
2021/04/13 17:00:22;;;;;;;0.68;0.40;;;;;;;22.55;29.11;95046.59;6077411;23;20006;-65
2021/04/13 17:03:26;;;;;;;1.10;0.35;;;;;;;22.59;28.85;95047.66;6076827;23;20097;-65
2021/04/13 17:06:08;;;;;;;1.02;0.52;;;;;;;22.56;28.90;95048.16;6126837;23;20098;-64
2021/04/13 17:08:44;;;;;;;4.45;0.70;;;;;;;22.56;29.45;95048.16;6100774;23;20006;-67
2021/04/13 17:11:25;;;;;;;2.50;0.60;;;;;;;22.54;29.50;95048.44;6125952;23;20009;-69
2021/04/13 17:13:54;;;;;;;3.90;0.60;;;;;;;22.55;29.91;95046.59;6101355;23;20048;-67
2021/04/13 17:16:28;;;;;;;1.33;0.60;;;;;;;22.54;29.87;95043.16;6149857;23;20009;-67
2021/04/13 17:18:56;;;;;;;1.55;0.60;;;;;;;22.57;29.74;95050.56;6078559;23;20034;-67
2021/04/13 17:21:25;;;;;;;3.60;0.63;;;;;;;22.59;29.68;95053.75;6099014;23;20033;-67
2021/04/13 17:23:51;;;;;;;0.60;0.47;;;;;;;22.60;29.42;95051.94;6075708;23;20002;-67
2021/04/13 17:26:17;;;;;;;1.80;0.60;;;;;;;22.60;29.68;95057.22;6100111;23;20001;-67
2021/04/13 17:28:44;;;;;;;0.70;0.60;;;;;;;22.62;29.43;95061.22;6125647;23;20012;-67
2021/04/13 17:31:27;;;;;;;1.90;0.70;;;;;;;22.65;29.22;95065.97;6092533;23;20063;-67
2021/04/13 17:33:53;;;;;;;1.48;0.60;;;;;;;22.65;29.16;95063.31;6099697;23;20013;-67
2021/04/13 17:36:26;;;;;;;1.40;0.65;;;;;;;22.68;29.17;95063.91;6121489;23;20026;-67
2021/04/13 17:39:06;;;;;;;1.67;0.47;;;;;;;22.69;29.29;95062.81;6128756;23;20008;-67
2021/04/13 17:41:42;;;;;;;1.13;0.60;;;;;;;22.68;28.89;95063.91;6146805;23;20145;-67
2021/04/13 17:44:32;;;;;;;0.50;0.50;;;;;;;22.72;29.09;95067.63;6153504;23;20002;-67
2021/04/13 17:47:17;;;;;;;0.80;0.43;;;;;;;22.71;28.87;95066.81;6153773;23;20005;-67
2021/04/13 17:49:43;;;;;;;0.85;0.50;;;;;;;22.70;29.03;95069.75;6152923;23;20037;-67
2021/04/13 17:52:13;;;;;;;1.15;0.60;;;;;;;22.71;29.21;95066.00;6153065;23;20001;-67
2021/04/13 17:54:39;;;;;;;0.95;0.40;;;;;;;22.72;28.93;95070.28;6128791;23;20024;-67
2021/04/13 17:57:19;;;;;;;3.17;0.68;;;;;;;22.73;29.07;95077.16;6155373;23;20005;-67
2021/04/13 17:59:46;;;;;;;0.68;0.57;;;;;;;22.71;29.00;95066.00;6153286;23;20010;-67
2021/04/13 18:02:21;;;;;;;0.70;0.45;;;;;;;22.75;28.81;95078.50;6127472;23;20008;-67
2021/04/13 18:04:52;;;;;;;1.33;0.60;;;;;;;22.74;29.11;95076.91;6155140;23;20009;-67
2021/04/13 18:07:24;;;;;;;;;;;;;;;22.77;28.97;95072.94;6130146;23;20005;-67
2021/04/13 18:10:10;;;;;;;0.60;0.40;;;;;;;22.79;28.91;95082.25;6129676;23;19915;-67
2021/04/13 18:12:58;;;;;;;0.60;0.50;;;;;;;22.79;29.24;95084.06;6152735;23;20008;-69
2021/04/13 18:15:29;;;;;;;4.47;0.45;;;;;;;22.76;29.61;95084.59;6129195;23;20005;-66
2021/04/13 18:18:20;;;;;;;1.38;0.57;;;;;;;22.79;29.62;95076.13;6128874;23;20087;-63
2021/04/13 18:20:50;;;;;;;1.30;0.50;;;;;;;22.76;29.88;95079.31;6128951;23;20009;-64
2021/04/13 18:23:19;;;;;;;0.85;0.80;;;;;;;22.76;29.94;95089.91;6154018;23;20052;-65
2021/04/13 18:25:57;;;;;;;3.72;0.60;;;;;;;22.81;29.81;95088.09;6153356;23;20008;-65
2021/04/13 18:28:26;;;;;;;1.17;0.43;;;;;;;22.80;29.76;95091.00;6127737;23;20006;-66
2021/04/13 18:30:57;;;;;;;2.55;0.70;;;;;;;22.80;30.09;95097.09;6152443;23;20001;-67
2021/04/13 18:33:29;;;;;;;0.40;0.40;;;;;;;22.81;30.00;95088.09;6153111;23;20064;-67
2021/04/13 18:36:08;;;;;;;1.25;0.50;;;;;;;22.85;30.36;95096.31;6171674;23;20059;-65
2021/04/13 18:38:42;;;;;;;0.77;0.50;;;;;;;22.81;30.46;95097.91;6133763;23;20007;-65
2021/04/13 18:41:22;;;;;;;2.00;0.60;;;;;;;22.82;30.07;95088.88;6132861;23;20015;-65
2021/04/13 18:44:06;;;;;;;1.65;0.50;;;;;;;22.85;30.28;95096.31;6110723;23;20001;-65
2021/04/13 18:46:38;;;;;;;1.48;0.50;;;;;;;22.82;29.97;95094.97;6134114;23;20005;-62
2021/04/13 18:49:16;;;;;;;1.58;0.50;;;;;;;22.83;30.02;95104.53;6108201;23;20011;-64
2021/04/13 18:51:47;;;;;;;0.30;0.30;;;;;;;22.83;29.70;95106.41;6132708;23;20098;-69
2021/04/13 18:54:15;;;;;;;0.60;0.40;;;;;;;22.84;30.18;95113.28;6107642;23;20053;-65
2021/04/13 18:56:47;;;;;;;1.48;0.50;;;;;;;22.83;30.21;95111.69;6157746;23;20005;-64
2021/04/13 18:59:16;;;;;;;1.50;0.40;;;;;;;22.81;30.15;95109.28;6109983;23;19997;-64
2021/04/13 19:01:48;;;;;;;0.95;0.55;;;;;;;22.84;30.47;95114.06;6109358;23;20004;-68
2021/04/13 19:04:14;;;;;;;1.35;0.50;;;;;;;22.84;30.85;95119.38;6109226;23;20009;-70
2021/04/13 19:06:58;;;;;;;0.70;0.50;;;;;;;22.89;30.42;95117.81;6158120;23;20040;-69
2021/04/13 19:09:34;;;;;;;2.30;0.60;;;;;;;22.90;30.57;95119.41;6134552;23;20004;-65
2021/04/13 19:12:12;;;;;;;1.60;0.50;;;;;;;22.88;30.52;95118.88;6132751;23;20100;-66
2021/04/13 19:14:43;;;;;;;3.20;0.57;;;;;;;22.90;30.46;95119.41;6111268;23;20004;-68
2021/04/13 19:17:33;;;;;;;3.30;0.50;;;;;;;22.91;30.57;95118.38;6108889;23;20036;-67
2021/04/13 19:20:15;;;;;;;3.03;0.50;;;;;;;22.90;30.58;95125.50;6160124;23;20009;-66
2021/04/13 19:22:55;;;;;;;1.50;0.50;;;;;;;22.90;30.38;95122.84;6136384;23;20001;-68
2021/04/13 19:25:25;;;;;;;1.80;0.47;;;;;;;22.87;31.04;95125.25;6157667;23;20005;-69
2021/04/13 19:28:09;;;;;;;3.00;0.55;;;;;;;22.87;30.81;95131.34;6106149;23;20011;-69
2021/04/13 19:30:49;;;;;;;2.47;0.55;;;;;;;22.82;30.52;95124.13;6157884;23;20001;-69
2021/04/13 19:33:25;;;;;;;2.10;0.50;;;;;;;22.84;30.67;95134.50;6110985;23;20004;-68
2021/04/13 19:36:20;;;;;;;0.68;0.40;;;;;;;22.84;30.52;95135.28;6128164;23;20029;-68
2021/04/13 19:38:56;;;;;;;1.38;0.47;;;;;;;22.80;30.47;95136.06;6044149;23;20035;-69
2021/04/13 19:41:26;;;;;;;4.00;0.68;;;;;;;22.81;30.55;95138.47;6045268;23;20070;-68
2021/04/13 19:43:53;;;;;;;3.85;0.47;;;;;;;22.79;30.58;95127.31;6021251;23;20085;-70
2021/04/13 19:46:19;;;;;;;6.75;0.88;;;;;;;22.79;30.88;95137.09;6044195;23;20011;-69
2021/04/13 19:48:51;;;;;;;13.00;1.10;;;;;;;22.78;30.79;95146.13;6020132;23;20011;-70
2021/04/13 19:51:27;;;;;;;7.68;1.17;;;;;;;22.80;30.84;95139.50;6044730;23;20069;-68
2021/04/13 19:54:20;;;;;;;8.07;1.35;;;;;;;22.80;30.57;95138.72;6021724;23;20033;-70
2021/04/13 19:56:48;;;;;;;9.63;1.33;;;;;;;22.77;30.81;95155.94;6022327;23;20003;-69
2021/04/13 19:59:15;;;;;;;8.85;1.38;;;;;;;22.79;31.03;95150.38;6043892;23;20014;-69
2021/04/13 20:01:45;;;;;;;7.57;1.35;;;;;;;22.79;30.84;95148.53;6019586;23;20006;-69
2021/04/13 20:04:13;;;;;;;4.03;0.90;;;;;;;22.79;30.56;95142.41;6018974;23;20011;-69
2021/04/13 20:06:39;;;;;;;9.68;1.58;;;;;;;22.78;30.74;95151.44;6022206;23;20006;-69
2021/04/13 20:09:06;;;;;;;4.53;0.90;;;;;;;22.76;30.45;95142.94;6045795;23;20006;-69
2021/04/13 20:11:39;;;;;;;6.35;1.05;;;;;;;22.82;30.73;95147.22;6047992;23;20010;-69
2021/04/13 20:14:27;;;;;;;4.18;1.00;;;;;;;22.80;31.01;95144.03;6022207;23;20010;-68
2021/04/13 20:17:39;;;;;;;4.70;1.10;;;;;;;22.82;30.79;95147.22;6103963;23;20080;-67
2021/04/13 20:20:09;;;;;;;5.80;1.00;;;;;;;22.81;31.00;95145.63;6149083;23;20005;-65
2021/04/13 20:22:35;;;;;;;;;;;;;;;22.85;30.40;95144.06;6154623;23;20010;-66
2021/04/13 20:25:01;;;;;;;5.90;0.90;;;;;;;22.83;30.64;95146.97;6128597;23;19909;-65
2021/04/13 20:27:37;;;;;;;4.38;0.70;;;;;;;22.82;30.80;95147.22;6152831;23;20001;-65
2021/04/13 20:30:02;;;;;;;4.85;0.65;;;;;;;22.81;30.72;95151.72;6129715;23;20002;-65
2021/04/13 20:32:34;;;;;;;3.60;0.80;;;;;;;22.79;30.67;95143.22;6154401;23;20032;-65
2021/04/13 20:40:43;;;;;;;4.20;0.90;;;;;;;22.79;30.43;95147.72;6123903;23;20033;-65
2021/04/13 20:43:14;;;;;;;4.28;0.80;;;;;;;22.77;30.55;95139.22;6075390;23;20097;-65
2021/04/13 20:45:40;;;;;;;5.50;0.70;;;;;;;22.76;30.48;95137.63;6123652;23;20022;-65
2021/04/13 20:48:09;;;;;;;2.88;0.80;;;;;;;22.75;30.37;95136.03;6123797;23;20018;-65
2021/04/13 20:50:39;;;;;;;4.28;0.93;;;;;;;22.74;30.31;95131.78;6124015;23;20006;-65
2021/04/13 20:53:23;;;;;;;3.40;0.80;;;;;;;22.74;30.23;95134.44;6124321;23;20016;-66
2021/04/13 20:55:57;;;;;;;3.75;0.73;;;;;;;22.73;30.24;95132.84;6124089;23;20029;-65
2021/04/13 20:58:26;;;;;;;2.13;0.70;;;;;;;22.70;30.17;95133.38;6099335;23;20006;-65
2021/04/13 21:01:03;;;;;;;1.73;0.55;;;;;;;22.70;30.25;95136.81;6099267;23;20006;-65
2021/04/13 21:03:35;;;;;;;4.13;1.02;;;;;;;22.67;30.35;95133.88;6099925;23;20016;-66
2021/04/13 21:06:10;;;;;;;2.95;0.70;;;;;;;22.70;30.03;95136.81;6076088;23;20006;-65
2021/04/13 21:08:45;;;;;;;3.10;0.70;;;;;;;22.68;30.07;95133.63;6099796;23;20006;-65
2021/04/13 21:11:15;;;;;;;2.97;0.70;;;;;;;22.68;30.29;95130.97;6075558;23;20045;-65
2021/04/13 21:13:41;;;;;;;2.20;0.70;;;;;;;22.63;30.30;95123.75;6099042;23;20001;-66
2021/04/13 21:16:08;;;;;;;1.58;0.60;;;;;;;22.64;30.30;95130.66;6153513;23;20093;-65
2021/04/13 21:18:35;;;;;;;2.88;0.70;;;;;;;22.62;30.09;95124.84;6153934;23;20005;-65
2021/04/13 21:21:17;;;;;;;3.22;0.57;;;;;;;22.64;30.23;95127.22;6155171;23;20002;-66
2021/04/13 21:23:48;;;;;;;1.75;0.50;;;;;;;22.63;30.07;95126.41;6154320;23;20023;-65
2021/04/13 21:26:19;;;;;;;2.35;0.60;;;;;;;22.62;30.17;95116.88;6129921;23;20029;-66
2021/04/13 21:28:48;;;;;;;1.58;0.50;;;;;;;22.60;29.96;95113.69;6129038;23;20029;-65
2021/04/13 21:31:16;;;;;;;0.55;0.50;;;;;;;22.60;29.98;95112.91;6105106;23;20010;-65
2021/04/13 21:33:57;;;;;;;0.85;0.40;;;;;;;22.61;29.81;95117.13;6153959;23;19998;-65
2021/04/13 21:36:27;;;;;;;2.05;0.43;;;;;;;22.59;29.91;95111.28;6129690;23;20013;-66
2021/04/13 21:38:58;;;;;;;2.25;0.50;;;;;;;22.60;30.05;95110.25;6129708;23;20007;-65
2021/04/13 21:41:27;;;;;;;2.78;0.60;;;;;;;22.60;30.17;95108.38;6129964;23;20024;-65
2021/04/13 21:44:20;;;;;;;1.05;0.50;;;;;;;22.58;30.08;95102.53;6129726;23;20002;-65
2021/04/13 21:46:47;;;;;;;1.33;0.50;;;;;;;22.57;30.09;95103.59;6147626;23;20032;-65
2021/04/13 21:49:16;;;;;;;1.20;0.43;;;;;;;22.60;29.85;95099.63;6153765;23;20002;-65
2021/04/13 21:51:56;;;;;;;3.67;0.55;;;;;;;22.59;29.93;95106.78;6129611;23;20009;-65
2021/04/13 21:54:34;;;;;;;1.47;0.43;;;;;;;22.58;29.93;95096.41;6154663;23;20011;-65
2021/04/13 21:57:02;;;;;;;1.95;0.60;;;;;;;22.58;30.03;95099.88;6129040;23;20001;-65
2021/04/13 21:59:35;;;;;;;2.05;0.55;;;;;;;22.58;29.84;95091.13;6155593;23;20084;-65
2021/04/13 22:02:02;;;;;;;1.92;0.50;;;;;;;22.56;30.02;95095.88;6104002;23;19997;-65
2021/04/13 22:04:36;;;;;;;1.33;0.60;;;;;;;22.55;29.85;95087.13;6153927;23;20002;-65
2021/04/13 22:07:22;;;;;;;2.33;0.60;;;;;;;22.57;30.07;95087.69;6129063;23;20025;-65
2021/04/13 22:09:49;;;;;;;1.10;0.40;;;;;;;22.53;30.05;95081.28;6129473;23;20013;-65
2021/04/13 22:12:23;;;;;;;1.55;0.50;;;;;;;22.55;30.01;95081.03;6128853;23;20059;-65
2021/04/13 22:14:49;;;;;;;1.60;0.60;;;;;;;22.53;29.84;95072.56;6154268;23;20064;-65
2021/04/13 22:17:30;;;;;;;1.17;0.68;;;;;;;22.55;30.00;95071.22;6152995;23;20092;-65
2021/04/13 22:20:23;;;;;;;0.98;0.57;;;;;;;22.56;29.84;95072.03;6154096;23;20005;-66
2021/04/13 22:22:49;;;;;;;3.05;0.55;;;;;;;22.53;29.81;95072.56;6097601;23;20010;-66
2021/04/13 22:25:23;;;;;;;1.42;0.60;;;;;;;22.55;29.96;95065.94;6154575;23;20002;-65
2021/04/13 22:28:09;;;;;;;0.70;0.50;;;;;;;22.56;29.70;95064.06;6128905;23;20025;-66
2021/04/13 22:31:08;;;;;;;2.55;0.50;;;;;;;22.55;30.04;95060.63;6152789;23;20017;-66
2021/04/13 22:33:47;;;;;;;1.20;0.52;;;;;;;22.53;29.62;95056.66;6153836;23;20001;-65
2021/04/13 22:36:15;;;;;;;0.88;0.50;;;;;;;22.53;29.75;95062.75;6128482;23;20006;-65
2021/04/13 22:38:41;;;;;;;0.82;0.32;;;;;;;22.50;29.97;95052.66;6153993;23;20008;-65
2021/04/13 22:41:06;;;;;;;1.38;0.47;;;;;;;22.51;29.97;95054.25;6155387;23;20002;-65
2021/04/13 22:43:43;;;;;;;1.02;0.50;;;;;;;22.54;29.77;95048.44;6073685;23;20006;-65
2021/04/13 22:46:10;;;;;;;1.60;0.60;;;;;;;22.51;29.84;95053.47;6122302;23;20030;-65
2021/04/13 22:48:35;;;;;;;1.00;0.50;;;;;;;22.47;29.75;95037.28;6097736;23;20133;-65
2021/04/13 22:51:02;;;;;;;0.93;0.45;;;;;;;22.51;29.71;95048.16;6122645;23;20014;-65
2021/04/13 22:53:33;;;;;;;1.40;0.50;;;;;;;22.52;29.85;95041.78;6122893;23;20043;-65
2021/04/13 22:56:28;;;;;;;1.33;0.60;;;;;;;22.52;29.84;95047.88;6122776;23;20002;-65
2021/04/13 22:58:55;;;;;;;0.90;0.43;;;;;;;22.51;29.84;95048.94;6054254;23;20095;-65
2021/04/13 23:01:23;;;;;;;1.98;0.60;;;;;;;22.48;29.39;95038.84;6035606;23;20078;-65
2021/04/13 23:03:48;;;;;;;0.40;0.40;;;;;;;22.50;29.78;95043.91;6035651;23;20011;-65
2021/04/13 23:06:14;;;;;;;0.57;0.40;;;;;;;22.51;29.97;95046.31;6035456;23;20053;-65
2021/04/13 23:08:39;;;;;;;1.05;0.52;;;;;;;22.48;29.73;95038.84;6012474;23;20015;-65
2021/04/13 23:11:08;;;;;;;0.85;0.40;;;;;;;22.52;29.91;95034.63;6035759;23;20011;-65
2021/04/13 23:13:35;;;;;;;0.60;0.40;;;;;;;22.50;29.71;95042.03;6012035;23;20007;-66
2021/04/13 23:16:04;;;;;;;0.60;0.45;;;;;;;22.52;29.79;95037.28;6035402;23;20086;-65
2021/04/13 23:18:31;;;;;;;1.05;0.43;;;;;;;22.50;29.88;95041.25;6034803;23;20069;-65
2021/04/13 23:21:00;;;;;;;1.23;0.52;;;;;;;22.52;29.95;95037.28;6035204;23;20007;-65
2021/04/13 23:23:30;;;;;;;1.08;0.55;;;;;;;22.51;29.72;95032.25;6036208;23;20007;-65
2021/04/13 23:25:58;;;;;;;0.82;0.30;;;;;;;22.52;29.70;95033.84;6035651;23;20014;-65
2021/04/13 23:28:24;;;;;;;1.33;0.47;;;;;;;22.50;29.96;95028.78;6010880;23;20015;-66
2021/04/13 23:30:50;;;;;;;1.08;0.45;;;;;;;22.51;29.77;95029.59;6035567;23;20017;-66
2021/04/13 23:33:15;;;;;;;1.17;0.50;;;;;;;22.49;29.74;95027.22;6036215;23;20022;-65
2021/04/13 23:35:41;;;;;;;0.75;0.30;;;;;;;22.50;29.83;95022.69;6084623;23;20015;-65
2021/04/13 23:38:06;;;;;;;1.80;0.47;;;;;;;22.46;29.67;95017.09;6178514;23;20013;-65